createdAt,value
2022-12-03T00:00:59.894Z,96651.45
2022-12-03T00:03:29.419Z,96654.31
2022-12-03T00:05:57.602Z,96661.66
2022-12-03T00:08:25.562Z,96664.09
2022-12-03T00:10:53.479Z,96667.22
2022-12-03T00:13:21.552Z,96666.16
2022-12-03T00:15:49.576Z,96667.76
2022-12-03T00:18:17.482Z,96671.40
2022-12-03T00:20:45.455Z,96671.30
2022-12-03T00:23:13.367Z,96674.96
2022-12-03T00:25:41.312Z,96679.02
2022-12-03T00:28:09.255Z,96682.60
2022-12-03T00:30:37.230Z,96681.37
2022-12-03T00:33:05.182Z,96685.27
2022-12-03T00:35:33.124Z,96690.86
2022-12-03T00:38:01.037Z,96693.38
2022-12-03T00:40:28.943Z,96691.27
2022-12-03T00:42:56.837Z,96691.70
2022-12-03T00:45:24.842Z,96694.58
2022-12-03T00:47:52.880Z,96693.44
2022-12-03T00:50:20.842Z,96695.72
2022-12-03T00:52:49.942Z,96694.55
2022-12-03T00:55:18.150Z,96694.42
2022-12-03T00:57:46.064Z,96693.50
2022-12-03T01:00:14.622Z,96695.48
2022-12-03T01:02:42.664Z,96696.52
2022-12-03T01:05:11.626Z,96699.21
2022-12-03T01:07:39.622Z,96693.04
2022-12-03T01:10:08.085Z,96695.81
2022-12-03T01:12:36.032Z,96697.10
2022-12-03T01:15:05.134Z,96693.63
2022-12-03T01:17:33.205Z,96697.16
2022-12-03T01:20:02.696Z,96695.91
2022-12-03T01:22:30.690Z,96697.41
2022-12-03T01:24:58.626Z,96694.98
2022-12-03T01:27:26.591Z,96691.06
2022-12-03T01:29:54.594Z,96685.80
2022-12-03T01:32:22.561Z,96683.77
2022-12-03T01:34:53.301Z,96678.17
2022-12-03T01:37:23.923Z,96679.19
2022-12-03T01:39:52.268Z,96680.92
2022-12-03T01:42:30.263Z,96684.35
2022-12-03T01:44:59.897Z,96688.17
2022-12-03T01:47:31.409Z,96688.23
2022-12-03T01:50:13.892Z,96687.98
2022-12-03T01:52:42.533Z,96689.51
2022-12-03T01:55:17.385Z,96692.67
2022-12-03T01:57:48.759Z,96688.05
2022-12-03T02:00:20.661Z,96686.75
2022-12-03T02:02:55.120Z,96684.11
2022-12-03T02:05:28.888Z,96680.70
2022-12-03T02:07:57.559Z,96683.46
2022-12-03T02:10:33.339Z,96678.95
2022-12-03T02:13:04.929Z,96678.05
2022-12-03T02:15:33.304Z,96676.15
2022-12-03T02:18:01.775Z,96671.83
2022-12-03T02:20:33.228Z,96676.59
2022-12-03T02:23:13.266Z,96676.41
2022-12-03T02:25:41.284Z,96676.20
2022-12-03T02:28:10.066Z,96681.83
2022-12-03T02:30:38.158Z,96685.29
2022-12-03T02:33:06.224Z,96683.13
2022-12-03T02:35:36.313Z,96685.58
2022-12-03T02:38:11.191Z,96686.64
2022-12-03T02:40:39.975Z,96685.66
2022-12-03T02:43:08.067Z,96685.36
2022-12-03T02:45:43.534Z,96686.42
2022-12-03T02:48:23.394Z,96688.55
2022-12-03T02:50:57.646Z,96690.67
2022-12-03T02:53:30.875Z,96692.64
2022-12-03T02:56:02.135Z,96694.41
2022-12-03T02:58:32.825Z,96691.23
2022-12-03T03:02:11.655Z,96693.02
2022-12-03T03:04:41.330Z,96693.64
2022-12-03T03:07:09.744Z,96694.82
2022-12-03T03:09:37.872Z,96692.80
2022-12-03T03:12:06.259Z,96696.56
2022-12-03T03:14:34.635Z,96697.89
2022-12-03T03:17:03.895Z,96694.23
2022-12-03T03:19:33.016Z,96694.91
2022-12-03T03:22:01.022Z,96697.05
2022-12-03T03:24:29.062Z,96696.92
2022-12-03T03:26:57.034Z,96698.31
2022-12-03T03:29:25.099Z,96699.39
2022-12-03T03:31:53.353Z,96700.58
2022-12-03T03:34:21.449Z,96699.60
2022-12-03T03:36:49.527Z,96700.67
2022-12-03T03:39:17.483Z,96698.08
2022-12-03T03:41:46.952Z,96698.95
2022-12-03T03:44:14.982Z,96700.29
2022-12-03T03:46:43.701Z,96702.68
2022-12-03T03:49:12.892Z,96704.05
2022-12-03T03:51:41.125Z,96702.08
2022-12-03T03:54:09.502Z,96704.15
2022-12-03T03:56:37.462Z,96702.16
2022-12-03T03:59:05.761Z,96700.47
2022-12-03T04:01:34.195Z,96697.27
2022-12-03T04:04:02.498Z,96699.99
2022-12-03T04:06:30.520Z,96701.75
2022-12-03T04:08:58.510Z,96701.49
2022-12-03T04:11:44.941Z,96700.45
2022-12-03T04:14:12.856Z,96701.58
2022-12-03T04:16:40.856Z,96707.50
2022-12-03T04:19:08.834Z,96711.63
2022-12-03T04:21:55.365Z,96716.17
2022-12-03T04:24:25.230Z,96710.73
2022-12-03T04:27:12.333Z,96714.17
2022-12-03T04:29:40.203Z,96717.77
2022-12-03T04:32:26.541Z,96714.56
2022-12-03T04:35:13.269Z,96710.95
2022-12-03T04:37:41.242Z,96708.93
2022-12-03T04:40:29.699Z,96711.77
2022-12-03T04:42:57.629Z,96716.30
2022-12-03T04:45:25.544Z,96719.63
2022-12-03T04:47:53.453Z,96719.77
2022-12-03T04:50:21.361Z,96717.81
2022-12-03T04:52:49.260Z,96718.36
2022-12-03T04:55:17.118Z,96718.40
2022-12-03T04:57:45.000Z,96716.92
2022-12-03T05:00:13.871Z,96717.70
2022-12-03T05:02:41.849Z,96721.71
2022-12-03T05:05:11.257Z,96720.59
2022-12-03T05:07:39.433Z,96722.17
2022-12-03T05:10:07.883Z,96719.46
2022-12-03T05:12:36.481Z,96719.27
2022-12-03T05:15:06.020Z,96723.76
2022-12-03T05:17:34.114Z,96728.25
2022-12-03T05:20:20.798Z,96728.42
2022-12-03T05:22:48.782Z,96726.40
2022-12-03T05:25:16.684Z,96725.88
2022-12-03T05:27:44.674Z,96727.77
2022-12-03T05:30:12.915Z,96727.56
2022-12-03T05:32:40.843Z,96731.00
2022-12-03T05:35:10.340Z,96736.27
2022-12-03T05:37:38.330Z,96737.74
2022-12-03T05:40:07.205Z,96738.50
2022-12-03T05:42:53.835Z,96736.46
2022-12-03T05:45:48.765Z,96735.63
2022-12-03T05:48:17.811Z,96736.29
2022-12-03T05:50:46.901Z,96740.14
2022-12-03T05:53:16.384Z,96742.05
2022-12-03T05:55:44.380Z,96743.43
2022-12-03T05:58:12.398Z,96746.73
2022-12-03T06:00:42.783Z,96746.92
2022-12-03T06:03:11.210Z,96745.56
2022-12-03T06:05:39.424Z,96744.41
2022-12-03T06:08:07.456Z,96744.42
2022-12-03T06:10:35.517Z,96743.58
2022-12-03T06:13:03.650Z,96746.92
2022-12-03T06:15:31.741Z,96750.96
2022-12-03T06:17:59.691Z,96750.60
2022-12-03T06:20:27.647Z,96748.63
2022-12-03T06:22:55.574Z,96747.52
2022-12-03T06:25:23.470Z,96750.24
2022-12-03T06:27:51.351Z,96751.00
2022-12-03T06:30:19.481Z,96757.30
2022-12-03T06:32:47.509Z,96759.66
2022-12-03T06:35:15.538Z,96758.15
2022-12-03T06:37:43.592Z,96760.63
2022-12-03T06:40:12.253Z,96762.20
2022-12-03T06:42:40.191Z,96761.55
2022-12-03T06:45:08.699Z,96763.06
2022-12-03T06:47:37.094Z,96763.06
2022-12-03T06:50:07.467Z,96766.80
2022-12-03T06:52:36.259Z,96768.01
2022-12-03T06:55:04.527Z,96764.77
2022-12-03T06:57:32.637Z,96765.45
2022-12-03T07:00:00.755Z,96768.45
2022-12-03T07:02:28.792Z,96766.21
2022-12-03T07:04:57.023Z,96765.52
2022-12-03T07:07:26.240Z,96764.93
2022-12-03T07:09:54.208Z,96764.45
2022-12-03T07:12:22.258Z,96765.79
2022-12-03T07:14:50.286Z,96760.48
2022-12-03T07:17:18.291Z,96759.83
2022-12-03T07:19:46.280Z,96759.79
2022-12-03T07:22:14.162Z,96758.09
2022-12-03T07:24:42.877Z,96758.55
2022-12-03T07:27:10.946Z,96758.02
2022-12-03T07:29:39.048Z,96761.23
2022-12-03T07:32:07.054Z,96763.58
2022-12-03T07:34:35.006Z,96764.90
2022-12-03T07:37:03.392Z,96765.73
2022-12-03T07:39:31.437Z,96767.66
2022-12-03T07:41:59.359Z,96766.52
2022-12-03T07:44:28.276Z,96767.75
2022-12-03T07:46:56.346Z,96769.38
2022-12-03T07:49:24.386Z,96771.34
2022-12-03T07:51:56.366Z,96770.13
2022-12-03T07:54:24.787Z,96771.40
2022-12-03T07:56:57.925Z,96772.30
2022-12-03T07:59:29.673Z,96774.14
2022-12-03T08:01:57.839Z,96772.70
2022-12-03T08:04:25.884Z,96769.35
2022-12-03T08:06:53.909Z,96770.06
2022-12-03T08:09:22.082Z,96769.73
2022-12-03T08:11:50.478Z,96767.39
2022-12-03T08:14:20.899Z,96769.09
2022-12-03T08:16:48.942Z,96765.48
2022-12-03T08:19:18.291Z,96766.13
2022-12-03T08:21:46.351Z,96769.33
2022-12-03T08:24:20.045Z,96765.80
2022-12-03T08:26:49.731Z,96766.23
2022-12-03T08:29:19.512Z,96767.30
2022-12-03T08:31:52.352Z,96769.21
2022-12-03T08:34:22.880Z,96775.03
2022-12-03T08:37:09.267Z,96775.84
2022-12-03T08:39:45.264Z,96773.16
2022-12-03T08:42:44.890Z,96771.08
2022-12-03T08:45:22.041Z,96772.80
2022-12-03T08:47:49.951Z,96774.90
2022-12-03T08:50:33.812Z,96774.20
2022-12-03T08:53:14.030Z,96772.61
2022-12-03T08:55:57.630Z,96779.10
2022-12-03T08:58:28.863Z,96782.40
2022-12-03T09:01:14.681Z,96780.89
2022-12-03T09:04:38.458Z,96781.23
2022-12-03T09:07:06.489Z,96775.86
2022-12-03T09:09:35.067Z,96774.30
2022-12-03T09:12:04.719Z,96771.42
2022-12-03T09:14:32.760Z,96772.61
2022-12-03T09:17:00.823Z,96775.81
2022-12-03T09:19:31.259Z,96778.29
2022-12-03T09:21:59.224Z,96776.73
2022-12-03T09:24:27.051Z,96773.48
2022-12-03T09:26:54.985Z,96770.39
2022-12-03T09:29:23.640Z,96770.62
2022-12-03T09:31:51.769Z,96770.45
2022-12-03T09:34:19.758Z,96770.45
2022-12-03T09:36:47.753Z,96768.74
2022-12-03T09:39:15.885Z,96768.16
2022-12-03T09:41:44.320Z,96764.64
2022-12-03T09:44:17.633Z,96761.63
2022-12-03T09:46:47.674Z,96760.52
2022-12-03T09:49:18.115Z,96762.76
2022-12-03T09:51:46.619Z,96762.52
2022-12-03T09:54:24.026Z,96761.57
2022-12-03T09:56:54.113Z,96756.13
2022-12-03T09:59:23.730Z,96757.36
2022-12-03T10:01:53.967Z,96759.38
2022-12-03T10:04:22.861Z,96758.65
2022-12-03T10:06:51.630Z,96753.58
2022-12-03T10:09:25.807Z,96750.35
2022-12-03T10:11:56.145Z,96749.46
2022-12-03T10:14:24.430Z,96748.23
2022-12-03T10:16:52.530Z,96746.88
2022-12-03T10:19:30.203Z,96745.96
2022-12-03T10:21:59.028Z,96747.45
2022-12-03T10:24:27.296Z,96743.29
2022-12-03T10:26:58.861Z,96743.75
2022-12-03T10:29:34.338Z,96743.40
2022-12-03T10:32:08.832Z,96743.80
2022-12-03T10:34:42.103Z,96743.81
2022-12-03T10:37:21.565Z,96741.82
2022-12-03T10:40:01.724Z,96743.39
2022-12-03T10:42:33.212Z,96744.20
2022-12-03T10:45:07.339Z,96745.58
2022-12-03T10:47:35.537Z,96743.95
2022-12-03T10:50:07.148Z,96741.18
2022-12-03T10:52:35.180Z,96740.46
2022-12-03T10:55:03.198Z,96736.40
2022-12-03T10:57:31.123Z,96736.40
2022-12-03T10:59:59.021Z,96737.13
2022-12-03T11:02:27.169Z,96730.73
2022-12-03T11:04:55.793Z,96730.48
2022-12-03T11:07:26.351Z,96729.41
2022-12-03T11:09:58.937Z,96728.14
2022-12-03T11:12:29.248Z,96720.73
2022-12-03T11:14:58.662Z,96717.12
2022-12-03T11:17:39.829Z,96713.83
2022-12-03T11:20:24.936Z,96714.97
2022-12-03T11:22:56.713Z,96715.40
2022-12-03T11:25:24.627Z,96712.27
2022-12-03T11:28:13.913Z,96710.57
2022-12-03T11:31:04.341Z,96711.69
2022-12-03T11:33:37.648Z,96713.05
2022-12-03T11:36:05.684Z,96712.83
2022-12-03T11:38:52.295Z,96717.37
2022-12-03T11:41:31.390Z,96711.12
2022-12-03T11:44:20.163Z,96710.35
2022-12-03T11:46:48.303Z,96712.40
2022-12-03T11:49:35.884Z,96715.20
2022-12-03T11:52:20.264Z,96716.14
2022-12-03T11:54:56.271Z,96716.52
2022-12-03T11:57:28.743Z,96719.73
2022-12-03T12:00:07.236Z,96718.98
2022-12-03T12:02:39.939Z,96722.15
2022-12-03T12:05:18.286Z,96721.21
2022-12-03T12:07:48.343Z,96716.53
2022-12-03T12:10:41.349Z,96719.09
2022-12-03T12:13:31.269Z,96720.05
2022-12-03T12:16:05.308Z,96719.09
2022-12-03T12:18:41.004Z,96718.56
2022-12-03T12:21:48.266Z,96717.02
2022-12-03T12:24:40.882Z,96713.79
2022-12-03T12:27:17.552Z,96715.08
2022-12-03T12:29:47.411Z,96713.94
2022-12-03T12:32:17.863Z,96711.67
2022-12-03T12:34:49.279Z,96715.30
2022-12-03T12:37:23.596Z,96719.27
2022-12-03T12:39:56.580Z,96721.52
2022-12-03T12:42:35.294Z,96720.38
2022-12-03T12:45:18.879Z,96716.27
2022-12-03T12:47:50.229Z,96719.38
2022-12-03T12:50:19.896Z,96717.23
2022-12-03T12:53:01.866Z,96717.59
2022-12-03T12:55:29.894Z,96718.05
2022-12-03T12:58:06.071Z,96720.52
2022-12-03T13:00:34.341Z,96722.91
2022-12-03T13:03:04.874Z,96723.85
2022-12-03T13:05:45.944Z,96723.27
2022-12-03T13:08:26.750Z,96720.97
2022-12-03T13:10:56.807Z,96720.43
2022-12-03T13:13:40.154Z,96720.44
2022-12-03T13:16:20.535Z,96717.83
2022-12-03T13:18:59.302Z,96718.50
2022-12-03T13:21:39.574Z,96719.83
2022-12-03T13:24:44.411Z,96722.34
2022-12-03T13:27:18.556Z,96721.88
2022-12-03T13:29:50.999Z,96721.89
2022-12-03T13:32:22.351Z,96727.41
2022-12-03T13:34:55.414Z,96725.67
2022-12-03T13:37:27.032Z,96722.95
2022-12-03T13:39:57.503Z,96723.06
2022-12-03T13:42:49.034Z,96726.60
2022-12-03T13:45:28.956Z,96729.29
2022-12-03T13:48:00.497Z,96730.04
2022-12-03T13:50:44.653Z,96726.52
2022-12-03T13:53:26.882Z,96732.77
2022-12-03T13:56:06.253Z,96728.36
2022-12-03T13:58:34.297Z,96726.59
2022-12-03T14:01:02.390Z,96729.83
2022-12-03T14:03:30.440Z,96733.09
2022-12-03T14:05:58.838Z,96738.77
2022-12-03T14:08:28.942Z,96745.09
2022-12-03T14:11:00.321Z,96744.65
2022-12-03T14:13:28.712Z,96750.65
2022-12-03T14:15:56.726Z,96750.84
2022-12-03T14:18:24.682Z,96754.17
2022-12-03T14:20:52.533Z,96755.47
2022-12-03T14:23:20.472Z,96756.23
2022-12-03T14:25:48.358Z,96757.33
2022-12-03T14:28:16.294Z,96759.47
2022-12-03T14:30:44.247Z,96759.20
2022-12-03T14:33:12.304Z,96757.85
2022-12-03T14:35:40.196Z,96756.44
2022-12-03T14:38:08.276Z,96757.23
2022-12-03T14:40:36.229Z,96757.66
2022-12-03T14:43:04.196Z,96757.46
2022-12-03T14:45:32.201Z,96757.42
2022-12-03T14:48:00.814Z,96752.29
2022-12-03T14:50:28.733Z,96755.02
2022-12-03T14:52:56.696Z,96757.92
2022-12-03T14:55:24.740Z,96761.67
2022-12-03T14:57:52.930Z,96762.48
2022-12-03T15:00:23.086Z,96767.20
2022-12-03T15:02:51.154Z,96768.83
2022-12-03T15:05:27.932Z,96771.15
2022-12-03T15:07:56.720Z,96776.30
2022-12-03T15:10:24.721Z,96774.39
2022-12-03T15:12:52.678Z,96774.13
2022-12-03T15:15:20.612Z,96773.02
2022-12-03T15:17:48.936Z,96770.54
2022-12-03T15:20:19.487Z,96776.27
2022-12-03T15:22:47.452Z,96776.48
2022-12-03T15:25:15.484Z,96772.94
2022-12-03T15:27:43.606Z,96780.83
2022-12-03T15:30:11.592Z,96781.02
2022-12-03T15:32:40.861Z,96779.01
2022-12-03T15:35:09.110Z,96783.94
2022-12-03T15:37:37.008Z,96781.73
2022-12-03T15:40:05.857Z,96780.02
2022-12-03T15:42:33.766Z,96778.27
2022-12-03T15:45:01.878Z,96782.37
2022-12-03T15:47:29.781Z,96781.02
2022-12-03T15:49:57.648Z,96786.71
2022-12-03T15:52:25.533Z,96788.48
2022-12-03T15:54:54.468Z,96786.23
2022-12-03T15:57:24.053Z,96791.29
2022-12-03T18:49:55.786Z,96810.73
2022-12-03T20:52:04.462Z,96815.14
2022-12-03T22:54:13.334Z,96805.05
